PWSweather.com
Personal Weather Stations
Station Observations

MakarauRodneyNZ

Lat: -36.52421, Lon: 174.47572

Elevation: 606

Station Type: Davis VP2

http://kaiparaweather.dynu.net/index.php

High Low Average
Temperature 68.9°F20.5°C 62.5°F16.9°C 65.2°F18.4°C
Dew Point 65.4°F18.6°C 60.5°F15.8°C 62.5°F16.9°C
Winds 10.4 mph 16.7 kmh Calm Calm 7.0 mph ENE11.3 kmh ENE
Wind Gusts 18.4 mph29.6 kmh -- 10.0 mph16.1 kmh
Humidity 93% 87% 91%
Pressure 29.67 in1004.7 mb 29.59 in1002.0 mb -
Precipitation 0.04 in1.0 mm - -
Hour Temp Dew Point Humidity Winds Wind Gusts Pressure Precip Precip Rate Daily Precip Total
12:00 AM 61.0°F16.1°C 59.3°F15.2°C 94% 10.4 mph ENE16.7 kmh ENE 12.7 mph20.4 kmh 29.74 in1007.1 mb - 0.00 in0.0 mm 0.02 in0.5 mm
12:10 AM 60.9°F16.1°C 59.1°F15.1°C 94% 11.5 mph NE18.5 kmh NE 15.0 mph24.1 kmh 29.72 in1006.4 mb - 0.00 in0.0 mm 0.02 in0.5 mm
12:20 AM 60.8°F16.0°C 59.1°F15.1°C 94% 12.7 mph ENE20.4 kmh ENE 20.7 mph33.3 kmh 29.71 in1006.1 mb - 0.00 in0.0 mm 0.02 in0.5 mm
12:40 AM 60.5°F15.8°C 58.8°F14.9°C 94% 12.7 mph ENE20.4 kmh ENE 19.6 mph31.5 kmh 29.70 in1005.8 mb - 0.00 in0.0 mm 0.02 in0.5 mm
12:50 AM 60.3°F15.7°C 58.6°F14.8°C 94% 11.5 mph ENE18.5 kmh ENE 13.8 mph22.2 kmh 29.69 in1005.4 mb - 0.00 in0.0 mm 0.02 in0.5 mm
01:00 AM 60.2°F15.7°C 58.5°F14.7°C 94% 11.5 mph ENE18.5 kmh ENE 17.3 mph27.8 kmh 29.69 in1005.4 mb - 0.00 in0.0 mm 0.02 in0.5 mm
01:10 AM 60.5°F15.8°C 58.8°F14.9°C 94% 10.4 mph ENE16.7 kmh ENE 16.1 mph25.9 kmh 29.69 in1005.4 mb - 0.00 in0.0 mm 0.02 in0.5 mm
01:20 AM 60.6°F15.9°C 58.9°F14.9°C 94% 10.4 mph ENE16.7 kmh ENE 15.0 mph24.1 kmh 29.69 in1005.4 mb - 0.00 in0.0 mm 0.02 in0.5 mm
01:30 AM 60.6°F15.9°C 58.9°F14.9°C 94% 12.7 mph ENE20.4 kmh ENE 19.6 mph31.5 kmh 29.68 in1005.1 mb - 0.00 in0.0 mm 0.02 in0.5 mm
01:40 AM 60.6°F15.9°C 58.9°F14.9°C 94% 13.8 mph NE22.2 kmh NE 19.6 mph31.5 kmh 29.68 in1005.1 mb - 0.00 in0.0 mm 0.02 in0.5 mm
01:50 AM 60.6°F15.9°C 58.9°F14.9°C 94% 10.4 mph ENE16.7 kmh ENE 11.5 mph18.5 kmh 29.68 in1005.1 mb - 0.00 in0.0 mm 0.02 in0.5 mm
02:00 AM 60.6°F15.9°C 58.9°F14.9°C 94% 10.4 mph ENE16.7 kmh ENE 13.8 mph22.2 kmh 29.68 in1005.1 mb - 0.01 in0.3 mm 0.02 in0.5 mm
02:10 AM 60.5°F15.8°C 58.8°F14.9°C 94% 12.7 mph ENE20.4 kmh ENE 21.9 mph35.2 kmh 29.67 in1004.7 mb - 0.00 in0.0 mm 0.02 in0.5 mm
02:20 AM 60.4°F15.8°C 58.7°F14.8°C 94% 11.5 mph ENE18.5 kmh ENE 19.6 mph31.5 kmh 29.68 in1005.1 mb - 0.00 in0.0 mm 0.02 in0.5 mm
02:30 AM 60.5°F15.8°C 58.8°F14.9°C 94% 11.5 mph NE18.5 kmh NE 16.1 mph25.9 kmh 29.68 in1005.1 mb - 0.00 in0.0 mm 0.02 in0.5 mm
02:40 AM 60.6°F15.9°C 58.9°F14.9°C 94% 12.7 mph NE20.4 kmh NE 16.1 mph25.9 kmh 29.67 in1004.7 mb - 0.00 in0.0 mm 0.02 in0.5 mm
02:50 AM 60.6°F15.9°C 58.9°F14.9°C 94% 12.7 mph ENE20.4 kmh ENE 16.1 mph25.9 kmh 29.67 in1004.7 mb - 0.00 in0.0 mm 0.02 in0.5 mm
03:00 AM 60.7°F15.9°C 59.0°F15.0°C 94% 11.5 mph ENE18.5 kmh ENE 17.3 mph27.8 kmh 29.68 in1005.1 mb - 0.00 in0.0 mm 0.02 in0.5 mm
03:10 AM 60.8°F16.0°C 59.0°F15.0°C 94% 12.7 mph ENE20.4 kmh ENE 19.6 mph31.5 kmh 29.67 in1004.7 mb - 0.00 in0.0 mm 0.02 in0.5 mm
03:20 AM 60.7°F15.9°C 59.0°F15.0°C 94% 11.5 mph ENE18.5 kmh ENE 12.7 mph20.4 kmh 29.68 in1005.1 mb - 0.00 in0.0 mm 0.02 in0.5 mm
03:30 AM 60.7°F15.9°C 59.0°F15.0°C 94% 11.5 mph ENE18.5 kmh ENE 13.8 mph22.2 kmh 29.68 in1005.1 mb - 0.00 in0.0 mm 0.02 in0.5 mm
03:40 AM 60.5°F15.8°C 58.8°F14.9°C 94% 12.7 mph ENE20.4 kmh ENE 19.6 mph31.5 kmh 29.67 in1004.7 mb - 0.00 in0.0 mm 0.02 in0.5 mm
03:50 AM 60.4°F15.8°C 58.6°F14.8°C 94% 11.5 mph ENE18.5 kmh ENE 16.1 mph25.9 kmh 29.67 in1004.7 mb - 0.00 in0.0 mm 0.02 in0.5 mm
04:00 AM 60.4°F15.8°C 58.7°F14.8°C 94% 12.7 mph ENE20.4 kmh ENE 17.3 mph27.8 kmh 29.67 in1004.7 mb - 0.00 in0.0 mm 0.02 in0.5 mm
04:10 AM 60.4°F15.8°C 58.6°F14.8°C 94% 13.8 mph ENE22.2 kmh ENE 18.4 mph29.6 kmh 29.67 in1004.7 mb - 0.00 in0.0 mm 0.02 in0.5 mm
04:20 AM 60.4°F15.8°C 58.7°F14.8°C 94% 13.8 mph NE22.2 kmh NE 21.9 mph35.2 kmh 29.67 in1004.7 mb - 0.00 in0.0 mm 0.02 in0.5 mm
04:40 AM 60.0°F15.6°C 58.3°F14.6°C 94% 11.5 mph ENE18.5 kmh ENE 18.4 mph29.6 kmh 29.68 in1005.1 mb - 0.00 in0.0 mm 0.02 in0.5 mm
04:50 AM 59.7°F15.4°C 58.0°F14.4°C 94% 10.4 mph ENE16.7 kmh ENE 16.1 mph25.9 kmh 29.69 in1005.4 mb - 0.00 in0.0 mm 0.02 in0.5 mm
05:00 AM 59.6°F15.3°C 57.9°F14.4°C 94% 10.4 mph ENE16.7 kmh ENE 11.5 mph18.5 kmh 29.68 in1005.1 mb - 0.00 in0.0 mm 0.02 in0.5 mm
05:10 AM 59.7°F15.4°C 58.0°F14.4°C 94% 8.1 mph ENE13.0 kmh ENE 12.7 mph20.4 kmh 29.69 in1005.4 mb - 0.00 in0.0 mm 0.02 in0.5 mm
05:30 AM 59.9°F15.5°C 58.2°F14.6°C 94% 10.4 mph ENE16.7 kmh ENE 15.0 mph24.1 kmh 29.69 in1005.4 mb - 0.02 in0.5 mm 0.04 in1.0 mm
08:00 AM 61.7°F16.5°C 60.2°F15.7°C 95% 10.4 mph ENE16.7 kmh ENE 16.1 mph25.9 kmh 29.70 in1005.8 mb - 0.01 in0.3 mm 0.04 in1.0 mm
08:10 AM 61.5°F16.4°C 60.1°F15.6°C 95% 10.4 mph ENE16.7 kmh ENE 15.0 mph24.1 kmh 29.70 in1005.8 mb - 0.00 in0.0 mm 0.04 in1.0 mm
08:20 AM 61.4°F16.3°C 60.0°F15.6°C 95% 10.4 mph ENE16.7 kmh ENE 19.6 mph31.5 kmh 29.70 in1005.8 mb - 0.00 in0.0 mm 0.04 in1.0 mm
08:30 AM 61.3°F16.3°C 59.6°F15.3°C 94% 11.5 mph ENE18.5 kmh ENE 13.8 mph22.2 kmh 29.70 in1005.8 mb - 0.00 in0.0 mm 0.04 in1.0 mm
08:40 AM 61.4°F16.3°C 59.4°F15.2°C 93% 10.4 mph ENE16.7 kmh ENE 16.1 mph25.9 kmh 29.69 in1005.4 mb - 0.00 in0.0 mm 0.04 in1.0 mm
08:50 AM 61.7°F16.5°C 59.6°F15.3°C 93% 10.4 mph ENE16.7 kmh ENE 18.4 mph29.6 kmh 29.69 in1005.4 mb - 0.00 in0.0 mm 0.04 in1.0 mm
09:00 AM 61.8°F16.6°C 59.8°F15.4°C 93% 9.2 mph ENE14.8 kmh ENE 13.8 mph22.2 kmh 29.68 in1005.1 mb - 0.00 in0.0 mm 0.04 in1.0 mm
09:10 AM 61.7°F16.5°C 59.6°F15.3°C 93% 10.4 mph ENE16.7 kmh ENE 11.5 mph18.5 kmh 29.68 in1005.1 mb - 0.00 in0.0 mm 0.04 in1.0 mm
09:20 AM 61.6°F16.4°C 59.6°F15.3°C 93% 9.2 mph ENE14.8 kmh ENE 11.5 mph18.5 kmh 29.68 in1005.1 mb - 0.00 in0.0 mm 0.04 in1.0 mm
09:30 AM 61.8°F16.6°C 59.8°F15.4°C 93% 9.2 mph ENE14.8 kmh ENE 19.6 mph31.5 kmh 29.68 in1005.1 mb - 0.00 in0.0 mm 0.04 in1.0 mm
09:40 AM 62.0°F16.7°C 59.6°F15.3°C 92% 10.4 mph ENE16.7 kmh ENE 11.5 mph18.5 kmh 29.67 in1004.7 mb - 0.00 in0.0 mm 0.04 in1.0 mm
09:50 AM 62.2°F16.8°C 59.8°F15.4°C 92% 11.5 mph ENE18.5 kmh ENE 18.4 mph29.6 kmh 29.67 in1004.7 mb - 0.00 in0.0 mm 0.04 in1.0 mm
10:00 AM 62.4°F16.9°C 60.0°F15.6°C 92% 10.4 mph ENE16.7 kmh ENE 13.8 mph22.2 kmh 29.67 in1004.7 mb - 0.00 in0.0 mm 0.04 in1.0 mm
10:10 AM 62.6°F17.0°C 60.2°F15.7°C 92% 8.1 mph ENE13.0 kmh ENE 11.5 mph18.5 kmh 29.67 in1004.7 mb - 0.00 in0.0 mm 0.04 in1.0 mm
10:20 AM 62.6°F17.0°C 59.9°F15.5°C 91% 8.1 mph ENE13.0 kmh ENE 11.5 mph18.5 kmh 29.67 in1004.7 mb - 0.00 in0.0 mm 0.04 in1.0 mm
10:30 AM 62.8°F17.1°C 60.4°F15.8°C 92% 8.1 mph ENE13.0 kmh ENE 15.0 mph24.1 kmh 29.67 in1004.7 mb - 0.00 in0.0 mm 0.04 in1.0 mm
10:40 AM 62.9°F17.2°C 60.5°F15.8°C 92% 10.4 mph ENE16.7 kmh ENE 12.7 mph20.4 kmh 29.67 in1004.7 mb - 0.00 in0.0 mm 0.04 in1.0 mm
10:50 AM 62.8°F17.1°C 60.4°F15.8°C 92% 8.1 mph ENE13.0 kmh ENE 11.5 mph18.5 kmh 29.67 in1004.7 mb - 0.00 in0.0 mm 0.04 in1.0 mm
11:00 AM 62.8°F17.1°C 60.4°F15.8°C 92% 6.9 mph ENE11.1 kmh ENE 10.4 mph16.7 kmh 29.66 in1004.4 mb - 0.00 in0.0 mm 0.04 in1.0 mm
11:10 AM 63.0°F17.2°C 60.9°F16.1°C 93% 9.2 mph ENE14.8 kmh ENE 13.8 mph22.2 kmh 29.66 in1004.4 mb - 0.00 in0.0 mm 0.04 in1.0 mm
11:20 AM 63.4°F17.4°C 61.1°F16.2°C 92% 9.2 mph NE14.8 kmh NE 15.0 mph24.1 kmh 29.66 in1004.4 mb - 0.00 in0.0 mm 0.04 in1.0 mm
11:30 AM 63.5°F17.5°C 61.1°F16.2°C 92% 8.1 mph ENE13.0 kmh ENE 11.5 mph18.5 kmh 29.66 in1004.4 mb - 0.00 in0.0 mm 0.04 in1.0 mm
11:40 AM 63.5°F17.5°C 61.1°F16.2°C 92% 8.1 mph ENE13.0 kmh ENE 11.5 mph18.5 kmh 29.66 in1004.4 mb - 0.00 in0.0 mm 0.04 in1.0 mm
11:50 AM 63.4°F17.4°C 61.0°F16.1°C 92% 6.9 mph NE11.1 kmh NE 11.5 mph18.5 kmh 29.65 in1004.1 mb - 0.00 in0.0 mm 0.04 in1.0 mm
12:00 PM 63.4°F17.4°C 61.0°F16.1°C 92% 9.2 mph ENE14.8 kmh ENE 11.5 mph18.5 kmh 29.65 in1004.1 mb - 0.00 in0.0 mm 0.04 in1.0 mm
12:10 PM 63.7°F17.6°C 61.6°F16.4°C 93% 8.1 mph ENE13.0 kmh ENE 11.5 mph18.5 kmh 29.65 in1004.1 mb - 0.00 in0.0 mm 0.04 in1.0 mm
12:20 PM 64.0°F17.8°C 61.6°F16.4°C 92% 5.8 mph ENE9.3 kmh ENE 8.1 mph13.0 kmh 29.65 in1004.1 mb - 0.00 in0.0 mm 0.04 in1.0 mm
12:30 PM 64.0°F17.8°C 61.6°F16.4°C 92% 6.9 mph NE11.1 kmh NE 11.5 mph18.5 kmh 29.65 in1004.1 mb - 0.00 in0.0 mm 0.04 in1.0 mm
12:40 PM 64.4°F18.0°C 62.4°F16.9°C 93% 9.2 mph ENE14.8 kmh ENE 17.3 mph27.8 kmh 29.64 in1003.7 mb - 0.00 in0.0 mm 0.04 in1.0 mm
12:50 PM 64.8°F18.2°C 62.7°F17.1°C 93% 6.9 mph ENE11.1 kmh ENE 11.5 mph18.5 kmh 29.64 in1003.7 mb - 0.00 in0.0 mm 0.04 in1.0 mm
01:00 PM 64.9°F18.3°C 62.5°F16.9°C 92% 8.1 mph ENE13.0 kmh ENE 12.7 mph20.4 kmh 29.64 in1003.7 mb - 0.00 in0.0 mm 0.04 in1.0 mm
01:10 PM 65.0°F18.3°C 62.6°F17.0°C 92% 6.9 mph ENE11.1 kmh ENE 10.4 mph16.7 kmh 29.64 in1003.7 mb - 0.00 in0.0 mm 0.04 in1.0 mm
01:20 PM 65.1°F18.4°C 62.7°F17.1°C 92% 10.4 mph ENE16.7 kmh ENE 15.0 mph24.1 kmh 29.63 in1003.4 mb - 0.00 in0.0 mm 0.04 in1.0 mm
01:30 PM 65.5°F18.6°C 63.1°F17.3°C 92% 9.2 mph ENE14.8 kmh ENE 11.5 mph18.5 kmh 29.62 in1003.0 mb - 0.00 in0.0 mm 0.04 in1.0 mm
01:40 PM 65.8°F18.8°C 63.4°F17.4°C 92% 9.2 mph ENE14.8 kmh ENE 13.8 mph22.2 kmh 29.62 in1003.0 mb - 0.00 in0.0 mm 0.04 in1.0 mm
01:50 PM 66.7°F19.3°C 64.3°F17.9°C 92% 8.1 mph ENE13.0 kmh ENE 10.4 mph16.7 kmh 29.62 in1003.0 mb - 0.00 in0.0 mm 0.04 in1.0 mm
02:00 PM 67.7°F19.8°C 65.3°F18.5°C 92% 8.1 mph NE13.0 kmh NE 18.4 mph29.6 kmh 29.61 in1002.7 mb - 0.00 in0.0 mm 0.04 in1.0 mm
02:10 PM 68.5°F20.3°C 65.4°F18.6°C 90% 10.4 mph NE16.7 kmh NE 15.0 mph24.1 kmh 29.61 in1002.7 mb - 0.00 in0.0 mm 0.04 in1.0 mm
02:20 PM 68.9°F20.5°C 65.2°F18.4°C 88% 8.1 mph ENE13.0 kmh ENE 11.5 mph18.5 kmh 29.61 in1002.7 mb - 0.00 in0.0 mm 0.04 in1.0 mm
02:30 PM 68.6°F20.3°C 64.6°F18.1°C 87% 8.1 mph ENE13.0 kmh ENE 11.5 mph18.5 kmh 29.60 in1002.4 mb - 0.00 in0.0 mm 0.04 in1.0 mm
02:40 PM 68.7°F20.4°C 65.0°F18.3°C 88% 9.2 mph ENE14.8 kmh ENE 11.5 mph18.5 kmh 29.60 in1002.4 mb - 0.00 in0.0 mm 0.04 in1.0 mm
02:50 PM 68.7°F20.4°C 64.6°F18.1°C 87% 8.1 mph NE13.0 kmh NE 12.7 mph20.4 kmh 29.60 in1002.4 mb - 0.00 in0.0 mm 0.04 in1.0 mm
03:00 PM 68.2°F20.1°C 64.2°F17.9°C 87% 5.8 mph NE9.3 kmh NE 9.2 mph14.8 kmh 29.60 in1002.4 mb - 0.00 in0.0 mm 0.04 in1.0 mm
03:10 PM 67.6°F19.8°C 63.9°F17.7°C 88% 6.9 mph NE11.1 kmh NE 11.5 mph18.5 kmh 29.61 in1002.7 mb - 0.00 in0.0 mm 0.04 in1.0 mm
03:20 PM 67.1°F19.5°C 63.7°F17.6°C 89% 6.9 mph ENE11.1 kmh ENE 8.1 mph13.0 kmh 29.61 in1002.7 mb - 0.00 in0.0 mm 0.04 in1.0 mm
03:30 PM 66.7°F19.3°C 63.7°F17.6°C 90% 6.9 mph ENE11.1 kmh ENE 11.5 mph18.5 kmh 29.60 in1002.4 mb - 0.00 in0.0 mm 0.04 in1.0 mm
03:40 PM 66.6°F19.2°C 63.9°F17.7°C 91% 6.9 mph ENE11.1 kmh ENE 10.4 mph16.7 kmh 29.60 in1002.4 mb - 0.00 in0.0 mm 0.04 in1.0 mm
03:50 PM 66.6°F19.2°C 63.9°F17.7°C 91% 5.8 mph ENE9.3 kmh ENE 8.1 mph13.0 kmh 29.60 in1002.4 mb - 0.00 in0.0 mm 0.04 in1.0 mm
04:00 PM 66.8°F19.3°C 64.0°F17.8°C 91% 6.9 mph ENE11.1 kmh ENE 13.8 mph22.2 kmh 29.60 in1002.4 mb - 0.00 in0.0 mm 0.04 in1.0 mm
04:10 PM 67.1°F19.5°C 64.7°F18.2°C 92% 9.2 mph ENE14.8 kmh ENE 11.5 mph18.5 kmh 29.59 in1002.0 mb - 0.00 in0.0 mm 0.04 in1.0 mm
04:20 PM 67.4°F19.7°C 64.6°F18.1°C 91% 6.9 mph ENE11.1 kmh ENE 10.4 mph16.7 kmh 29.59 in1002.0 mb - 0.00 in0.0 mm 0.04 in1.0 mm
04:30 PM 67.6°F19.8°C 64.9°F18.3°C 91% 8.1 mph ENE13.0 kmh ENE 9.2 mph14.8 kmh 29.59 in1002.0 mb - 0.00 in0.0 mm 0.04 in1.0 mm
04:40 PM 67.8°F19.9°C 64.8°F18.2°C 90% 9.2 mph ENE14.8 kmh ENE 11.5 mph18.5 kmh 29.59 in1002.0 mb - 0.00 in0.0 mm 0.04 in1.0 mm
04:50 PM 67.5°F19.7°C 64.1°F17.8°C 89% 6.9 mph ENE11.1 kmh ENE 8.1 mph13.0 kmh 29.59 in1002.0 mb - 0.00 in0.0 mm 0.04 in1.0 mm
05:00 PM 67.2°F19.6°C 63.8°F17.7°C 89% 6.9 mph ENE11.1 kmh ENE 15.0 mph24.1 kmh 29.59 in1002.0 mb - 0.00 in0.0 mm 0.04 in1.0 mm
05:10 PM 67.0°F19.4°C 63.6°F17.6°C 89% 6.9 mph ENE11.1 kmh ENE 11.5 mph18.5 kmh 29.59 in1002.0 mb - 0.00 in0.0 mm 0.04 in1.0 mm
05:20 PM 66.6°F19.2°C 63.3°F17.4°C 89% 8.1 mph ENE13.0 kmh ENE 10.4 mph16.7 kmh 29.60 in1002.4 mb - 0.00 in0.0 mm 0.04 in1.0 mm
05:30 PM 66.3°F19.1°C 63.3°F17.4°C 90% 6.9 mph ENE11.1 kmh ENE 11.5 mph18.5 kmh 29.59 in1002.0 mb - 0.00 in0.0 mm 0.04 in1.0 mm
05:40 PM 66.2°F19.0°C 63.1°F17.3°C 90% 9.2 mph ENE14.8 kmh ENE 15.0 mph24.1 kmh 29.60 in1002.4 mb - 0.00 in0.0 mm 0.04 in1.0 mm
05:50 PM 66.0°F18.9°C 63.0°F17.2°C 90% 6.9 mph ENE11.1 kmh ENE 9.2 mph14.8 kmh 29.60 in1002.4 mb - 0.00 in0.0 mm 0.04 in1.0 mm
06:00 PM 65.9°F18.8°C 62.9°F17.2°C 90% 8.1 mph ENE13.0 kmh ENE 13.8 mph22.2 kmh 29.61 in1002.7 mb - 0.00 in0.0 mm 0.04 in1.0 mm
06:10 PM 65.7°F18.7°C 62.7°F17.1°C 90% 6.9 mph ENE11.1 kmh ENE 10.4 mph16.7 kmh 29.61 in1002.7 mb - 0.00 in0.0 mm 0.04 in1.0 mm
06:20 PM 65.5°F18.6°C 62.8°F17.1°C 91% 9.2 mph ENE14.8 kmh ENE 13.8 mph22.2 kmh 29.61 in1002.7 mb - 0.00 in0.0 mm 0.04 in1.0 mm
06:30 PM 65.4°F18.6°C 62.7°F17.1°C 91% 6.9 mph ENE11.1 kmh ENE 10.4 mph16.7 kmh 29.61 in1002.7 mb - 0.00 in0.0 mm 0.04 in1.0 mm
06:40 PM 65.2°F18.4°C 62.5°F16.9°C 91% 8.1 mph ENE13.0 kmh ENE 9.2 mph14.8 kmh 29.61 in1002.7 mb - 0.00 in0.0 mm 0.04 in1.0 mm
06:50 PM 65.0°F18.3°C 62.3°F16.8°C 91% 8.1 mph ENE13.0 kmh ENE 11.5 mph18.5 kmh 29.62 in1003.0 mb - 0.00 in0.0 mm 0.04 in1.0 mm
07:00 PM 64.8°F18.2°C 62.1°F16.7°C 91% 8.1 mph ENE13.0 kmh ENE 11.5 mph18.5 kmh 29.62 in1003.0 mb - 0.00 in0.0 mm 0.04 in1.0 mm
07:10 PM 64.7°F18.2°C 62.0°F16.7°C 91% 8.1 mph ENE13.0 kmh ENE 11.5 mph18.5 kmh 29.62 in1003.0 mb - 0.00 in0.0 mm 0.04 in1.0 mm
07:20 PM 64.6°F18.1°C 61.9°F16.6°C 91% 6.9 mph NE11.1 kmh NE 10.4 mph16.7 kmh 29.62 in1003.0 mb - 0.00 in0.0 mm 0.04 in1.0 mm
07:30 PM 64.6°F18.1°C 61.9°F16.6°C 91% 6.9 mph ENE11.1 kmh ENE 11.5 mph18.5 kmh 29.63 in1003.4 mb - 0.00 in0.0 mm 0.04 in1.0 mm
07:40 PM 64.5°F18.1°C 61.8°F16.6°C 91% 8.1 mph ENE13.0 kmh ENE 11.5 mph18.5 kmh 29.62 in1003.0 mb - 0.00 in0.0 mm 0.04 in1.0 mm
07:50 PM 64.5°F18.1°C 61.8°F16.6°C 91% 6.9 mph ENE11.1 kmh ENE 10.4 mph16.7 kmh 29.63 in1003.4 mb - 0.00 in0.0 mm 0.04 in1.0 mm
08:00 PM 64.3°F17.9°C 61.6°F16.4°C 91% 6.9 mph ENE11.1 kmh ENE 10.4 mph16.7 kmh 29.63 in1003.4 mb - 0.00 in0.0 mm 0.04 in1.0 mm
08:10 PM 64.2°F17.9°C 61.8°F16.6°C 92% 6.9 mph ENE11.1 kmh ENE 9.2 mph14.8 kmh 29.64 in1003.7 mb - 0.00 in0.0 mm 0.04 in1.0 mm
08:20 PM 64.2°F17.9°C 61.8°F16.6°C 92% 6.9 mph ENE11.1 kmh ENE 9.2 mph14.8 kmh 29.64 in1003.7 mb - 0.00 in0.0 mm 0.04 in1.0 mm
08:30 PM 64.2°F17.9°C 61.8°F16.6°C 92% 6.9 mph ENE11.1 kmh ENE 8.1 mph13.0 kmh 29.65 in1004.1 mb - 0.00 in0.0 mm 0.04 in1.0 mm
08:40 PM 64.1°F17.8°C 61.8°F16.6°C 92% 6.9 mph ENE11.1 kmh ENE 8.1 mph13.0 kmh 29.65 in1004.1 mb - 0.00 in0.0 mm 0.04 in1.0 mm
08:50 PM 64.0°F17.8°C 61.6°F16.4°C 92% 5.8 mph ENE9.3 kmh ENE 9.2 mph14.8 kmh 29.65 in1004.1 mb - 0.00 in0.0 mm 0.04 in1.0 mm
09:00 PM 63.8°F17.7°C 61.4°F16.3°C 92% 6.9 mph ENE11.1 kmh ENE 9.2 mph14.8 kmh 29.65 in1004.1 mb - 0.00 in0.0 mm 0.04 in1.0 mm
09:10 PM 63.5°F17.5°C 61.2°F16.2°C 92% 5.8 mph ENE9.3 kmh ENE 8.1 mph13.0 kmh 29.66 in1004.4 mb - 0.00 in0.0 mm 0.04 in1.0 mm
09:20 PM 63.3°F17.4°C 60.9°F16.1°C 92% 5.8 mph ENE9.3 kmh ENE 8.1 mph13.0 kmh 29.66 in1004.4 mb - 0.00 in0.0 mm 0.04 in1.0 mm
09:30 PM 63.2°F17.3°C 60.9°F16.1°C 92% 4.6 mph ENE7.4 kmh ENE 6.9 mph11.1 kmh 29.66 in1004.4 mb - 0.00 in0.0 mm 0.04 in1.0 mm
09:40 PM 63.1°F17.3°C 60.7°F15.9°C 92% 5.8 mph ENE9.3 kmh ENE 8.1 mph13.0 kmh 29.67 in1004.7 mb - 0.00 in0.0 mm 0.04 in1.0 mm
09:50 PM 63.0°F17.2°C 60.9°F16.1°C 93% 4.6 mph ENE7.4 kmh ENE 8.1 mph13.0 kmh 29.67 in1004.7 mb - 0.00 in0.0 mm 0.04 in1.0 mm
10:00 PM 62.8°F17.1°C 60.5°F15.8°C 92% 6.9 mph ENE11.1 kmh ENE 10.4 mph16.7 kmh 29.67 in1004.7 mb - 0.00 in0.0 mm 0.04 in1.0 mm
10:10 PM 62.7°F17.1°C 60.6°F15.9°C 93% 5.8 mph ENE9.3 kmh ENE 6.9 mph11.1 kmh 29.67 in1004.7 mb - 0.00 in0.0 mm 0.04 in1.0 mm
10:20 PM 62.6°F17.0°C 60.5°F15.8°C 93% 5.8 mph ENE9.3 kmh ENE 9.2 mph14.8 kmh 29.67 in1004.7 mb - 0.00 in0.0 mm 0.04 in1.0 mm
10:30 PM 62.6°F17.0°C 60.6°F15.9°C 93% 4.6 mph ENE7.4 kmh ENE 5.8 mph9.3 kmh 29.67 in1004.7 mb - 0.00 in0.0 mm 0.04 in1.0 mm
10:40 PM 62.7°F17.1°C 60.6°F15.9°C 93% Calm Calm -- 29.67 in1004.7 mb - 0.00 in0.0 mm 0.04 in1.0 mm
10:50 PM 62.8°F17.1°C 60.8°F16.0°C 93% Calm Calm -- 29.67 in1004.7 mb - 0.00 in0.0 mm 0.04 in1.0 mm
11:00 PM 62.9°F17.2°C 60.8°F16.0°C 93% Calm Calm -- 29.67 in1004.7 mb - 0.00 in0.0 mm 0.04 in1.0 mm
11:10 PM 63.0°F17.2°C 60.9°F16.1°C 93% Calm Calm -- 29.67 in1004.7 mb - 0.00 in0.0 mm 0.04 in1.0 mm
11:20 PM 62.9°F17.2°C 60.8°F16.0°C 93% Calm Calm -- 29.67 in1004.7 mb - 0.00 in0.0 mm 0.04 in1.0 mm
11:30 PM 62.9°F17.2°C 60.8°F16.0°C 93% Calm Calm -- 29.66 in1004.4 mb - 0.00 in0.0 mm 0.04 in1.0 mm
11:40 PM 62.7°F17.1°C 60.7°F15.9°C 93% Calm Calm -- 29.66 in1004.4 mb - 0.00 in0.0 mm 0.04 in1.0 mm
11:50 PM 62.5°F16.9°C 60.5°F15.8°C 93% Calm Calm -- 29.66 in1004.4 mb - 0.00 in0.0 mm 0.04 in1.0 mm